Time;durP1;ratioP1;P1;durP2;ratioP2;P2;SDS_P1;SDS_P2;PMS_P1;PMS_P2;Temp;Humidity;BMP_temperature;BMP_pressure;BME280_temperature;BME280_humidity;BME280_pressure;Samples;Min_cycle;Max_cycle;Signal;HPM_P1;HPM_P2
2023/06/26 00:00:04;;;;;;;49.45;45.28;;;21.90;99.90;;;;;;5032358;28;20049;-62
2023/06/26 00:02:32;;;;;;;51.30;47.08;;;21.90;99.90;;;;;;5030399;28;20037;-62
2023/06/26 00:05:01;;;;;;;51.90;47.63;;;22.10;99.90;;;;;;5030311;28;20479;-62
2023/06/26 00:07:27;;;;;;;53.30;48.72;;;22.10;99.90;;;;;;5052413;28;20503;-62
2023/06/26 00:09:53;;;;;;;52.38;47.78;;;21.90;99.90;;;;;;5032171;28;20041;-62
2023/06/26 00:12:19;;;;;;;51.00;46.92;;;21.90;99.90;;;;;;5034309;28;20029;-63
2023/06/26 00:14:44;;;;;;;48.85;44.63;;;22.00;99.90;;;;;;5052017;28;20079;-63
2023/06/26 00:17:11;;;;;;;50.17;45.88;;;21.90;99.90;;;;;;5067079;28;20148;-63
2023/06/26 00:19:36;;;;;;;52.58;48.08;;;21.90;99.90;;;;;;5051572;28;20052;-63
2023/06/26 00:22:02;;;;;;;52.53;47.80;;;21.90;99.90;;;;;;5043246;28;20029;-63
2023/06/26 00:24:27;;;;;;;53.65;48.90;;;21.80;99.90;;;;;;5031678;28;20045;-63
2023/06/26 00:26:53;;;;;;;53.50;48.85;;;21.80;99.90;;;;;;5031626;28;20095;-63
2023/06/26 00:29:18;;;;;;;52.42;47.92;;;21.60;99.90;;;;;;5031557;28;20042;-63
2023/06/26 00:31:44;;;;;;;54.85;50.05;;;21.60;99.90;;;;;;5031027;28;20045;-63
2023/06/26 00:34:10;;;;;;;54.88;50.10;;;21.50;99.90;;;;;;5051042;28;20399;-63
2023/06/26 00:36:35;;;;;;;54.70;49.30;;;21.40;99.90;;;;;;5031480;28;20033;-62
2023/06/26 00:39:01;;;;;;;52.42;47.92;;;21.10;99.90;;;;;;5022258;28;20044;-63
2023/06/26 00:41:26;;;;;;;51.28;46.65;;;21.20;99.90;;;;;;5058694;28;20033;-62
2023/06/26 00:43:52;;;;;;;50.15;45.63;;;21.20;99.90;;;;;;5025739;28;20050;-62
2023/06/26 00:46:17;;;;;;;48.72;44.22;;;21.10;1.00;;;;;;5022447;28;20041;-63
2023/06/26 00:48:45;;;;;;;47.28;43.10;;;21.10;1.00;;;;;;5024526;28;20042;-62
2023/06/26 00:51:11;;;;;;;46.40;42.35;;;21.20;1.00;;;;;;5018097;28;20041;-62
2023/06/26 00:53:37;;;;;;;45.63;41.72;;;21.20;29.50;;;;;;5029807;28;20535;-62
2023/06/26 00:56:03;;;;;;;46.22;42.00;;;21.10;79.50;;;;;;5031003;28;20037;-62
2023/06/26 00:58:29;;;;;;;44.85;41.05;;;21.30;99.90;;;;;;5045682;28;20517;-63
2023/06/26 01:00:54;;;;;;;45.50;41.50;;;21.30;99.90;;;;;;5049989;28;20049;-63
2023/06/26 01:03:22;;;;;;;45.13;41.15;;;21.10;99.90;;;;;;5030908;28;20037;-63
2023/06/26 01:05:49;;;;;;;45.22;41.42;;;21.10;99.90;;;;;;5030058;28;20038;-62
2023/06/26 01:08:16;;;;;;;46.53;42.22;;;21.20;99.90;;;;;;5030975;28;20515;-63
2023/06/26 01:10:42;;;;;;;45.13;41.22;;;21.10;99.90;;;;;;5030925;28;20065;-63
2023/06/26 01:13:08;;;;;;;45.22;40.60;;;21.10;99.90;;;;;;5043991;28;20064;-63
2023/06/26 01:15:34;;;;;;;44.00;40.28;;;21.40;99.90;;;;;;5050699;28;20120;-63
2023/06/26 01:18:03;;;;;;;42.63;38.47;;;21.10;1.00;;;;;;5030582;28;20169;-63
2023/06/26 01:20:37;;;;;;;41.95;38.45;;;21.20;1.00;;;;;;5030742;28;20503;-63
2023/06/26 01:23:29;;;;;;;37.80;34.80;;;21.30;95.70;;;;;;5029057;28;20102;-63
2023/06/26 01:26:24;;;;;;;31.10;28.42;;;21.50;99.90;;;;;;5030185;28;20053;-63
2023/06/26 01:28:51;;;;;;;25.83;23.35;;;21.80;99.90;;;;;;5014447;28;20163;-63
2023/06/26 01:31:17;;;;;;;25.83;23.73;;;21.90;99.90;;;;;;5012664;28;20507;-63
2023/06/26 01:33:43;;;;;;;26.60;24.20;;;22.30;99.90;;;;;;5029458;28;20025;-63
2023/06/26 01:36:10;;;;;;;27.05;24.58;;;22.40;1.00;;;;;;5030088;28;20049;-63
2023/06/26 01:38:35;;;;;;;22.42;20.63;;;22.60;1.00;;;;;;5030244;28;20037;-63
2023/06/26 01:41:01;;;;;;;18.45;16.73;;;22.70;99.90;;;;;;5029984;28;20033;-63
2023/06/26 01:44:05;;;;;;;18.02;16.48;;;22.80;19.40;;;;;;5034502;28;20110;-63
2023/06/26 01:46:42;;;;;;;21.23;19.52;;;23.00;99.90;;;;;;5060687;28;20124;-63
2023/06/26 01:49:32;;;;;;;21.70;20.00;;;23.00;99.90;;;;;;5026185;28;20045;-64
2023/06/26 01:52:09;;;;;;;25.67;23.45;;;23.20;99.90;;;;;;5027848;28;20037;-63
2023/06/26 01:54:42;;;;;;;25.30;23.27;;;23.10;99.90;;;;;;5030366;28;20049;-63
2023/06/26 01:57:09;;;;;;;25.95;23.58;;;23.20;99.90;;;;;;5019109;28;20431;-63
2023/06/26 01:59:36;;;;;;;27.60;25.13;;;23.10;94.20;;;;;;5044266;28;20071;-63
2023/06/26 02:02:02;;;;;;;27.48;24.92;;;23.00;78.30;;;;;;5041798;28;20045;-63
2023/06/26 02:04:28;;;;;;;29.85;27.15;;;22.90;55.30;;;;;;5029912;28;20045;-63
2023/06/26 02:06:54;;;;;;;32.10;29.13;;;22.90;33.90;;;;;;5029594;28;20134;-63
2023/06/26 02:09:20;;;;;;;33.10;29.88;;;22.80;54.50;;;;;;5029861;28;20088;-63
2023/06/26 02:11:46;;;;;;;33.75;30.60;;;22.60;90.50;;;;;;5028951;28;20077;-63
2023/06/26 02:14:12;;;;;;;35.42;32.25;;;22.60;99.90;;;;;;5030070;28;20091;-63
2023/06/26 02:16:37;;;;;;;34.72;31.58;;;22.40;99.90;;;;;;5029807;28;20407;-63
2023/06/26 02:19:03;;;;;;;36.28;33.03;;;22.50;99.90;;;;;;5029766;28;20099;-63
2023/06/26 02:21:28;;;;;;;37.28;33.90;;;22.40;99.90;;;;;;5029855;28;20590;-63
2023/06/26 02:23:54;;;;;;;37.13;33.45;;;22.30;99.90;;;;;;5030162;28;20069;-63
2023/06/26 02:26:20;;;;;;;38.03;34.50;;;22.20;99.90;;;;;;5029606;28;20041;-63
2023/06/26 02:28:46;;;;;;;39.17;35.40;;;22.10;99.90;;;;;;5029923;28;20049;-63
2023/06/26 02:31:11;;;;;;;37.53;34.15;;;22.10;99.90;;;;;;5037980;28;20118;-63
2023/06/26 02:33:37;;;;;;;36.35;32.88;;;22.00;1.00;;;;;;5008943;28;20128;-63
2023/06/26 02:36:02;;;;;;;36.88;33.50;;;22.10;1.00;;;;;;5011270;28;20124;-63
2023/06/26 02:38:28;;;;;;;38.92;35.13;;;22.10;1.00;;;;;;5028398;28;20033;-63
2023/06/26 02:40:53;;;;;;;38.97;35.28;;;22.00;1.00;;;;;;5036184;28;20514;-63
2023/06/26 02:43:19;;;;;;;38.67;34.92;;;21.90;1.00;;;;;;5030328;28;20060;-63
2023/06/26 02:45:45;;;;;;;38.58;34.95;;;21.90;1.00;;;;;;5033409;28;20115;-63
2023/06/26 02:48:10;;;;;;;38.25;34.60;;;21.80;3.90;;;;;;5033153;28;20041;-63
2023/06/26 02:50:36;;;;;;;39.22;35.53;;;21.90;49.20;;;;;;5017842;28;20399;-63
2023/06/26 02:53:01;;;;;;;38.90;35.22;;;21.90;95.60;;;;;;5059479;28;20051;-63
2023/06/26 02:55:27;;;;;;;38.92;35.17;;;21.80;99.90;;;;;;5038224;28;20420;-63
2023/06/26 02:57:52;;;;;;;37.75;34.28;;;21.90;99.90;;;;;;5041571;28;20042;-63
2023/06/26 03:00:18;;;;;;;39.75;35.67;;;21.70;99.90;;;;;;5033099;28;20043;-63
2023/06/26 03:02:44;;;;;;;38.78;35.00;;;21.70;99.90;;;;;;5032950;28;20072;-63
2023/06/26 03:05:09;;;;;;;40.58;36.92;;;21.70;99.90;;;;;;5033259;28;20064;-63
2023/06/26 03:07:35;;;;;;;40.65;36.83;;;21.70;99.90;;;;;;5033085;28;20406;-63
2023/06/26 03:10:00;;;;;;;40.60;36.80;;;21.60;99.90;;;;;;5036579;28;20033;-63
2023/06/26 03:12:26;;;;;;;40.72;36.70;;;21.70;99.90;;;;;;5041570;28;20046;-63
2023/06/26 03:14:51;;;;;;;40.85;36.65;;;21.60;99.90;;;;;;5033151;28;20049;-63
2023/06/26 03:17:17;;;;;;;40.33;36.20;;;21.50;1.00;;;;;;5032178;28;20503;-63
2023/06/26 03:19:43;;;;;;;40.67;36.67;;;21.50;1.00;;;;;;5032080;28;20049;-63
2023/06/26 03:22:08;;;;;;;40.35;36.17;;;21.20;1.00;;;;;;5031794;28;20037;-63
2023/06/26 03:24:34;;;;;;;39.15;35.45;;;21.20;1.00;;;;;;5034342;28;20107;-62
2023/06/26 03:26:59;;;;;;;39.53;35.65;;;21.10;64.00;;;;;;5052610;28;20519;-63
2023/06/26 03:29:25;;;;;;;39.85;36.05;;;21.00;99.90;;;;;;5032555;28;20049;-63
2023/06/26 03:31:51;;;;;;;39.92;35.88;;;21.00;99.90;;;;;;5032011;28;20131;-63
2023/06/26 03:34:16;;;;;;;41.15;36.97;;;20.90;99.90;;;;;;5031448;28;20522;-62
2023/06/26 03:36:42;;;;;;;41.90;37.55;;;20.90;1.00;;;;;;5032958;28;20393;-63
2023/06/26 03:39:07;;;;;;;41.60;37.42;;;20.60;1.00;;;;;;5032211;28;20041;-63
2023/06/26 03:41:33;;;;;;;40.95;36.97;;;20.70;99.90;;;;;;5043345;28;20171;-63
2023/06/26 03:44:00;;;;;;;38.78;34.92;;;20.50;99.90;;;;;;5032202;28;20053;-62
2023/06/26 03:46:25;;;;;;;37.78;33.97;;;20.40;17.80;;;;;;5032413;28;20045;-63
2023/06/26 03:48:51;;;;;;;39.85;34.53;;;20.50;99.90;;;;;;5030580;28;20063;-63
2023/06/26 03:51:16;;;;;;;39.33;35.10;;;20.60;1.00;;;;;;5014003;28;20141;-63
2023/06/26 03:53:42;;;;;;;38.53;34.63;;;19.70;99.90;;;;;;5032435;28;20045;-62
2023/06/26 03:56:07;;;;;;;39.72;35.42;;;20.50;1.00;;;;;;5044065;28;20124;-62
2023/06/26 03:58:33;;;;;;;37.17;33.30;;;20.20;99.90;;;;;;5039997;28;20061;-62
2023/06/26 04:01:00;;;;;;;38.35;32.75;;;20.30;99.90;;;;;;5030518;28;20037;-63
2023/06/26 04:03:25;;;;;;;34.60;31.00;;;20.10;1.00;;;;;;5031783;28;20052;-63
2023/06/26 04:05:51;;;;;;;32.38;28.92;;;20.00;99.90;;;;;;5032281;28;20491;-63
2023/06/26 04:08:17;;;;;;;37.00;29.42;;;20.20;99.90;;;;;;5031825;28;20033;-63
2023/06/26 04:10:45;;;;;;;35.15;31.20;;;20.00;9.40;;;;;;5033253;28;20045;-62
2023/06/26 04:13:11;;;;;;;35.70;31.92;;;19.90;99.90;;;;;;5031721;28;20045;-62
2023/06/26 04:15:36;;;;;;;36.97;31.90;;;19.80;99.90;;;;;;5032013;28;20056;-64
2023/06/26 04:18:02;;;;;;;35.72;31.95;;;19.70;99.90;;;;;;5031473;28;20124;-62
2023/06/26 04:20:28;;;;;;;34.78;31.00;;;19.60;99.90;;;;;;5030525;28;20377;-62
2023/06/26 04:22:54;;;;;;;35.67;31.40;;;19.70;1.00;;;;;;5031764;28;20048;-62
2023/06/26 04:25:19;;;;;;;39.75;31.35;;;19.70;53.80;;;;;;5043213;28;20123;-62
2023/06/26 04:27:45;;;;;;;33.70;30.05;;;19.50;99.90;;;;;;5047381;28;20041;-62
2023/06/26 04:30:12;;;;;;;33.45;29.90;;;19.60;99.90;;;;;;5031580;28;20084;-62
2023/06/26 04:32:37;;;;;;;35.92;30.73;;;19.50;99.90;;;;;;5031331;28;20049;-63
2023/06/26 04:35:03;;;;;;;31.60;28.30;;;19.50;99.90;;;;;;5031698;28;20467;-63
2023/06/26 04:37:29;;;;;;;35.58;28.40;;;19.40;99.90;;;;;;5031204;28;20126;-63
2023/06/26 04:39:54;;;;;;;30.35;26.67;;;19.50;99.90;;;;;;5041244;28;20127;-63
2023/06/26 04:42:21;;;;;;;33.25;29.75;;;19.40;99.90;;;;;;5046035;28;20077;-62
2023/06/26 04:44:47;;;;;;;33.22;29.77;;;19.60;34.50;;;;;;5031443;28;20042;-63
2023/06/26 04:47:14;;;;;;;32.78;29.20;;;19.70;34.20;;;;;;5031283;28;20045;-62
2023/06/26 04:49:43;;;;;;;33.05;29.65;;;19.60;99.90;;;;;;5022652;28;20050;-63
2023/06/26 04:52:08;;;;;;;33.22;29.70;;;19.40;99.90;;;;;;5030587;28;20092;-63
2023/06/26 04:54:34;;;;;;;33.08;29.55;;;19.60;90.70;;;;;;5031234;28;20075;-63
2023/06/26 04:56:59;;;;;;;32.03;28.48;;;19.50;99.90;;;;;;5031382;28;20041;-62
2023/06/26 04:59:25;;;;;;;31.83;28.63;;;19.50;1.00;;;;;;5030717;28;20049;-63
2023/06/26 05:01:51;;;;;;;31.25;27.90;;;19.50;1.00;;;;;;5031045;28;20099;-62
2023/06/26 05:04:16;;;;;;;31.52;28.33;;;19.40;99.90;;;;;;5030969;28;20086;-63
2023/06/26 05:06:42;;;;;;;30.27;27.08;;;19.60;99.90;;;;;;5032258;28;20518;-63
2023/06/26 05:09:07;;;;;;;30.38;27.17;;;19.60;99.90;;;;;;5037108;28;20384;-63
2023/06/26 05:11:33;;;;;;;27.75;24.85;;;19.70;1.00;;;;;;5030619;28;20036;-63
2023/06/26 05:13:59;;;;;;;27.60;24.90;;;19.70;99.90;;;;;;5029698;28;20079;-63
2023/06/26 05:16:24;;;;;;;29.77;26.88;;;19.70;1.00;;;;;;5029409;28;20488;-63
2023/06/26 05:18:50;;;;;;;28.85;26.33;;;19.60;1.00;;;;;;5030861;28;20484;-63
2023/06/26 05:21:16;;;;;;;28.45;25.73;;;19.60;99.90;;;;;;5030913;28;20527;-63
2023/06/26 05:23:44;;;;;;;30.33;27.60;;;19.60;99.90;;;;;;5039714;28;20042;-63
2023/06/26 05:26:10;;;;;;;29.48;26.60;;;19.60;99.90;;;;;;5030690;28;20056;-62
2023/06/26 05:28:37;;;;;;;28.80;25.83;;;19.60;99.90;;;;;;5030844;28;20041;-63
2023/06/26 05:31:04;;;;;;;28.17;25.20;;;19.70;95.50;;;;;;5030648;28;20037;-63
2023/06/26 05:33:30;;;;;;;29.83;26.65;;;19.70;1.00;;;;;;5012435;28;20045;-62
2023/06/26 05:35:58;;;;;;;29.23;26.20;;;19.80;54.90;;;;;;5030406;28;20037;-63
2023/06/26 05:38:24;;;;;;;28.65;25.70;;;19.70;71.00;;;;;;5041605;28;20038;-63
2023/06/26 05:40:50;;;;;;;30.45;27.33;;;19.80;1.00;;;;;;5010693;28;20041;-63
2023/06/26 05:43:16;;;;;;;30.00;24.77;;;19.90;19.20;;;;;;5018571;28;20136;-62
2023/06/26 05:45:41;;;;;;;25.88;23.27;;;20.00;1.00;;;;;;5030112;28;20047;-63
2023/06/26 05:48:07;;;;;;;27.98;24.83;;;19.90;99.90;;;;;;5030428;28;20045;-63
2023/06/26 05:50:33;;;;;;;29.02;26.08;;;19.90;99.90;;;;;;5029802;28;20415;-62
2023/06/26 05:52:59;;;;;;;25.63;23.00;;;20.00;1.00;;;;;;5029719;28;20037;-63
2023/06/26 05:55:25;;;;;;;27.13;24.63;;;20.00;99.90;;;;;;5030513;28;20080;-63
2023/06/26 05:57:52;;;;;;;29.15;26.05;;;19.90;99.90;;;;;;5029025;28;20075;-63
2023/06/26 06:00:18;;;;;;;42.85;28.50;;;19.90;99.90;;;;;;5029283;28;20033;-63
2023/06/26 06:02:44;;;;;;;30.75;26.52;;;20.00;1.00;;;;;;5030092;28;20041;-63
2023/06/26 06:05:10;;;;;;;31.08;27.45;;;19.90;1.00;;;;;;5030129;28;20072;-63
2023/06/26 06:07:36;;;;;;;25.80;23.55;;;20.00;99.90;;;;;;5036635;28;20120;-63
2023/06/26 06:10:03;;;;;;;28.90;24.80;;;19.90;99.90;;;;;;5045442;28;20045;-63
2023/06/26 06:12:29;;;;;;;25.67;23.25;;;19.90;95.70;;;;;;5023992;28;20041;-60
2023/06/26 06:14:55;;;;;;;24.27;22.10;;;20.00;98.50;;;;;;5040398;28;20037;-60
2023/06/26 06:17:21;;;;;;;23.70;21.60;;;20.10;1.00;;;;;;5034965;28;20029;-60
2023/06/26 06:19:47;;;;;;;26.15;23.80;;;20.00;1.00;;;;;;5032131;28;20037;-61
2023/06/26 06:22:12;;;;;;;24.60;22.55;;;20.00;1.00;;;;;;5015360;28;20044;-61
2023/06/26 06:24:38;;;;;;;24.73;22.35;;;20.00;1.00;;;;;;5030139;28;20091;-60
2023/06/26 06:27:03;;;;;;;27.95;25.27;;;20.00;1.00;;;;;;5040232;28;20043;-60
2023/06/26 06:29:29;;;;;;;24.75;22.85;;;20.00;1.00;;;;;;5035353;28;20037;-60
2023/06/26 06:31:55;;;;;;;26.85;24.65;;;20.10;1.00;;;;;;5028047;28;20041;-60
2023/06/26 06:34:20;;;;;;;27.55;25.33;;;19.90;1.00;;;;;;5026481;28;20125;-60
2023/06/26 06:36:46;;;;;;;29.90;27.02;;;20.00;1.00;;;;;;5029886;28;20124;-60
2023/06/26 06:39:12;;;;;;;26.88;24.58;;;20.00;99.90;;;;;;5019518;28;20759;-60
2023/06/26 06:41:38;;;;;;;27.83;25.33;;;20.10;1.00;;;;;;5018391;28;20041;-61
2023/06/26 06:44:04;;;;;;;27.33;24.83;;;20.10;1.00;;;;;;5028184;28;20045;-61
2023/06/26 06:46:29;;;;;;;24.92;22.92;;;20.10;1.00;;;;;;5059351;28;20484;-60
2023/06/26 06:48:56;;;;;;;26.75;24.45;;;20.00;1.00;;;;;;5030889;28;20064;-60
2023/06/26 06:51:22;;;;;;;26.13;23.75;;;20.20;1.00;;;;;;5023383;28;20026;-60
2023/06/26 06:53:47;;;;;;;28.77;25.92;;;20.20;1.00;;;;;;5032178;28;20105;-60
2023/06/26 06:56:13;;;;;;;30.83;25.95;;;20.20;1.00;;;;;;5027263;28;20488;-61
2023/06/26 06:58:42;;;;;;;26.88;24.38;;;20.10;9.20;;;;;;5033267;28;20033;-60
2023/06/26 07:01:09;;;;;;;28.27;25.77;;;20.20;1.00;;;;;;5027190;28;20462;-60
2023/06/26 07:03:34;;;;;;;28.90;25.42;;;20.50;41.60;;;;;;5025585;28;20045;-61
2023/06/26 07:06:00;;;;;;;27.02;24.58;;;20.50;5.60;;;;;;5036450;28;20030;-62
2023/06/26 07:08:26;;;;;;;28.27;25.60;;;20.40;1.00;;;;;;5035483;28;20041;-63
2023/06/26 07:10:52;;;;;;;26.20;23.98;;;20.40;1.00;;;;;;5027992;28;20037;-61
2023/06/26 07:13:17;;;;;;;26.95;24.48;;;20.30;1.00;;;;;;5039169;28;20056;-62
2023/06/26 07:15:43;;;;;;;31.35;25.80;;;20.20;1.00;;;;;;5027286;28;20073;-61
2023/06/26 07:18:09;;;;;;;27.20;24.58;;;20.40;1.00;;;;;;5027072;28;20439;-61
2023/06/26 07:20:34;;;;;;;30.88;27.83;;;20.40;1.00;;;;;;5028523;28;20048;-61
2023/06/26 07:23:00;;;;;;;34.35;27.63;;;20.40;57.30;;;;;;5026094;28;20049;-61
2023/06/26 07:25:25;;;;;;;28.35;25.70;;;20.60;65.70;;;;;;5032320;28;20041;-61
2023/06/26 07:27:51;;;;;;;29.73;27.05;;;20.50;1.00;;;;;;5031652;28;20506;-61
2023/06/26 07:30:17;;;;;;;35.05;31.60;;;20.30;1.00;;;;;;5030854;28;20490;-61
2023/06/26 07:32:45;;;;;;;34.50;31.20;;;20.20;1.00;;;;;;5033862;28;20037;-61
2023/06/26 07:35:11;;;;;;;34.25;30.75;;;20.20;1.00;;;;;;5032581;28;20116;-61
2023/06/26 07:37:36;;;;;;;32.63;29.45;;;20.40;11.20;;;;;;5032142;28;20124;-62
2023/06/26 07:40:02;;;;;;;33.47;30.25;;;20.30;1.00;;;;;;5040582;28;20095;-62
2023/06/26 07:42:28;;;;;;;34.47;30.42;;;20.30;3.00;;;;;;5031062;28;20049;-61
2023/06/26 07:44:54;;;;;;;33.30;30.13;;;20.30;91.10;;;;;;5030091;28;20102;-62
2023/06/26 07:47:19;;;;;;;34.83;30.95;;;20.50;91.50;;;;;;5032197;28;20049;-62
2023/06/26 07:49:45;;;;;;;34.65;31.00;;;21.00;87.90;;;;;;5034937;28;20046;-62
2023/06/26 07:52:11;;;;;;;31.05;28.35;;;20.30;21.50;;;;;;5030027;28;20044;-62
2023/06/26 07:54:37;;;;;;;32.47;29.55;;;20.10;1.00;;;;;;5031715;28;20046;-62
2023/06/26 07:57:06;;;;;;;34.55;31.33;;;20.10;1.00;;;;;;5062812;28;20483;-62
2023/06/26 07:59:32;;;;;;;33.42;30.27;;;20.20;1.00;;;;;;5020908;28;20134;-61
2023/06/26 08:01:58;;;;;;;31.55;28.75;;;20.20;15.60;;;;;;5025318;28;20460;-61
2023/06/26 08:04:26;;;;;;;34.17;30.70;;;20.00;45.50;;;;;;5040212;28;20029;-61
2023/06/26 08:06:54;;;;;;;34.35;30.73;;;20.00;59.10;;;;;;5038149;28;20055;-61
2023/06/26 08:09:21;;;;;;;34.20;31.10;;;20.10;89.10;;;;;;5048331;28;20124;-61
2023/06/26 08:11:47;;;;;;;32.83;29.67;;;20.30;64.00;;;;;;5031420;28;20059;-61
2023/06/26 08:14:13;;;;;;;35.53;31.90;;;20.20;1.00;;;;;;5031322;28;20045;-61
2023/06/26 08:16:40;;;;;;;35.40;32.00;;;20.20;1.00;;;;;;5031602;28;20055;-60
2023/06/26 08:19:05;;;;;;;33.65;30.10;;;20.30;1.00;;;;;;5031265;28;20120;-59
2023/06/26 08:21:31;;;;;;;33.45;30.23;;;20.50;1.00;;;;;;5030857;28;20575;-61
2023/06/26 08:23:56;;;;;;;32.63;29.58;;;20.50;1.00;;;;;;5031811;28;20053;-60
2023/06/26 08:26:22;;;;;;;31.88;28.73;;;20.70;1.00;;;;;;5034346;28;20057;-60
2023/06/26 08:28:48;;;;;;;34.13;30.70;;;20.70;99.90;;;;;;5025495;28;20045;-59
2023/06/26 08:31:13;;;;;;;36.85;33.00;;;20.60;99.90;;;;;;5033014;28;20507;-63
2023/06/26 08:33:39;;;;;;;36.60;33.08;;;20.50;99.90;;;;;;5039385;28;20536;-60
2023/06/26 08:36:04;;;;;;;35.92;32.60;;;20.30;99.90;;;;;;5032283;28;20068;-59
2023/06/26 08:38:30;;;;;;;36.40;32.60;;;20.60;99.90;;;;;;5031605;28;20029;-59
2023/06/26 08:40:55;;;;;;;37.63;33.58;;;20.70;99.90;;;;;;5030675;28;20104;-60
2023/06/26 08:43:21;;;;;;;36.03;32.63;;;20.80;99.90;;;;;;5028877;28;20144;-59
2023/06/26 08:45:51;;;;;;;36.75;33.05;;;20.70;99.90;;;;;;5030460;28;20045;-60
2023/06/26 08:48:18;;;;;;;35.97;32.15;;;20.60;99.90;;;;;;5027745;28;20038;-59
2023/06/26 08:50:44;;;;;;;35.47;32.38;;;20.50;99.90;;;;;;5028663;28;20101;-59
2023/06/26 08:53:16;;;;;;;38.03;34.20;;;20.60;99.90;;;;;;5038328;28;20140;-59
2023/06/26 08:55:42;;;;;;;33.38;30.02;;;21.00;99.90;;;;;;5031129;28;20045;-58
2023/06/26 08:58:09;;;;;;;31.63;28.80;;;20.90;99.90;;;;;;5029779;28;20103;-58
2023/06/26 09:00:35;;;;;;;33.33;30.10;;;21.00;99.90;;;;;;5029529;28;20041;-58
2023/06/26 09:03:03;;;;;;;35.13;31.65;;;21.20;99.90;;;;;;5030305;28;20497;-59
2023/06/26 09:05:28;;;;;;;34.40;31.10;;;21.00;35.00;;;;;;5025108;28;20069;-59
2023/06/26 09:07:58;;;;;;;36.10;32.63;;;20.90;19.00;;;;;;5027965;28;20068;-59
2023/06/26 09:10:24;;;;;;;33.67;30.13;;;20.70;6.00;;;;;;5029860;28;20103;-59
2023/06/26 09:12:50;;;;;;;29.63;26.80;;;20.90;21.90;;;;;;5033802;28;20036;-59
2023/06/26 09:15:18;;;;;;;30.73;27.55;;;21.00;1.00;;;;;;5030728;28;20045;-59
2023/06/26 09:17:44;;;;;;;30.35;27.38;;;21.00;1.00;;;;;;5027713;28;20037;-60
2023/06/26 09:20:10;;;;;;;33.47;29.50;;;21.00;1.00;;;;;;5029890;28;20048;-59
2023/06/26 09:22:47;;;;;;;29.42;26.42;;;20.90;1.00;;;;;;5046010;28;20064;-59
2023/06/26 09:25:12;;;;;;;31.70;27.90;;;20.70;1.00;;;;;;5029383;28;20180;-57
2023/06/26 09:27:38;;;;;;;32.92;29.52;;;20.60;1.00;;;;;;5022376;28;20125;-61
2023/06/26 09:30:07;;;;;;;34.78;31.13;;;20.70;1.00;;;;;;5028478;28;20041;-58
2023/06/26 09:32:36;;;;;;;35.05;31.48;;;20.80;1.00;;;;;;5029345;28;20033;-58
2023/06/26 09:35:03;;;;;;;34.35;29.23;;;20.70;99.90;;;;;;5025552;28;20043;-58
2023/06/26 09:37:29;;;;;;;34.92;31.48;;;20.60;1.00;;;;;;5024263;28;20036;-58
2023/06/26 09:39:54;;;;;;;32.17;29.08;;;20.70;1.00;;;;;;5022988;28;20041;-58
2023/06/26 09:42:20;;;;;;;30.63;27.70;;;20.90;1.00;;;;;;5017827;28;20699;-58
2023/06/26 09:44:47;;;;;;;33.72;30.45;;;21.10;1.00;;;;;;5027516;28;20106;-58
2023/06/26 09:47:16;;;;;;;31.95;28.85;;;21.00;99.90;;;;;;5028760;28;20650;-58
2023/06/26 09:49:45;;;;;;;34.10;30.58;;;21.20;1.00;;;;;;5039374;28;20037;-58
2023/06/26 09:52:18;;;;;;;36.80;32.97;;;21.30;99.90;;;;;;5021205;28;20057;-58
2023/06/26 09:54:46;;;;;;;35.70;32.17;;;21.20;99.90;;;;;;5018680;28;20065;-58
2023/06/26 09:57:15;;;;;;;38.20;34.08;;;21.10;99.90;;;;;;5040614;28;20120;-58
2023/06/26 09:59:41;;;;;;;33.15;29.55;;;21.10;1.00;;;;;;5026015;28;20042;-58
2023/06/26 10:02:07;;;;;;;39.00;35.03;;;21.40;99.90;;;;;;5018101;28;20105;-58
2023/06/26 10:04:34;;;;;;;29.20;26.30;;;21.50;99.90;;;;;;5019786;28;20051;-58
2023/06/26 10:07:04;;;;;;;30.25;27.10;;;21.80;99.90;;;;;;5023271;28;20457;-57
2023/06/26 10:09:31;;;;;;;34.00;30.52;;;22.30;99.90;;;;;;5017149;28;20048;-58
2023/06/26 10:12:09;;;;;;;35.05;31.58;;;22.30;99.90;;;;;;5025865;28;20092;-57
2023/06/26 10:14:37;;;;;;;42.10;37.70;;;22.40;99.90;;;;;;5020337;28;20179;-58
2023/06/26 10:17:18;;;;;;;43.30;38.60;;;22.30;99.90;;;;;;5032093;28;20061;-57
2023/06/26 10:19:45;;;;;;;43.95;39.42;;;21.90;99.90;;;;;;5012805;28;20038;-58
2023/06/26 10:22:15;;;;;;;40.67;36.25;;;21.80;99.90;;;;;;5058192;28;20148;-58
2023/06/26 10:24:41;;;;;;;38.90;34.70;;;21.60;99.90;;;;;;5029577;28;20042;-58
2023/06/26 10:27:15;;;;;;;41.53;37.65;;;21.70;99.90;;;;;;5026379;28;20570;-57
2023/06/26 10:29:42;;;;;;;46.08;41.42;;;21.60;99.90;;;;;;5026436;28;20033;-58
2023/06/26 10:32:11;;;;;;;47.83;43.10;;;21.10;99.90;;;;;;5033918;28;20045;-57
2023/06/26 10:34:37;;;;;;;44.88;40.35;;;20.90;99.90;;;;;;5029198;28;20060;-57
2023/06/26 10:37:04;;;;;;;47.75;41.28;;;21.00;99.90;;;;;;5027951;28;20435;-58
2023/06/26 10:39:47;;;;;;;48.75;43.88;;;20.90;99.90;;;;;;5036332;28;20041;-57
2023/06/26 10:42:13;;;;;;;48.13;43.10;;;20.40;99.90;;;;;;5027460;28;20053;-57
2023/06/26 10:44:43;;;;;;;43.80;39.40;;;20.30;99.90;;;;;;5025246;28;20041;-58
2023/06/26 10:47:10;;;;;;;44.72;40.47;;;20.30;1.00;;;;;;5018172;28;20108;-58
2023/06/26 10:49:36;;;;;;;44.67;40.55;;;20.40;1.00;;;;;;5027146;28;20072;-58
2023/06/26 10:52:02;;;;;;;45.67;40.42;;;20.30;1.00;;;;;;5020594;28;20407;-58
2023/06/26 10:54:30;;;;;;;45.72;41.05;;;20.20;1.00;;;;;;5028048;28;20034;-58
2023/06/26 10:56:59;;;;;;;45.60;41.17;;;20.10;1.00;;;;;;5026662;28;20659;-58
2023/06/26 10:59:26;;;;;;;43.53;39.42;;;20.10;1.00;;;;;;5027217;28;20034;-58
2023/06/26 11:02:00;;;;;;;44.75;40.08;;;19.80;99.90;;;;;;5021693;28;21221;-58
2023/06/26 11:04:46;;;;;;;40.03;35.92;;;19.90;1.00;;;;;;5024772;28;20080;-58
2023/06/26 11:07:24;;;;;;;42.90;38.33;;;20.30;1.00;;;;;;5030609;28;20041;-58
2023/06/26 11:10:09;;;;;;;43.58;39.05;;;20.40;1.00;;;;;;5031176;28;20049;-58
2023/06/26 11:12:41;;;;;;;43.88;39.47;;;20.40;1.00;;;;;;5060237;28;20443;-58
2023/06/26 11:15:19;;;;;;;45.45;40.50;;;20.20;1.00;;;;;;5015293;28;20100;-58
2023/06/26 11:17:45;;;;;;;44.97;40.17;;;20.00;99.90;;;;;;5026656;28;20046;-58
2023/06/26 11:20:15;;;;;;;42.72;38.33;;;20.00;1.00;;;;;;5026390;28;20033;-58
2023/06/26 11:22:42;;;;;;;42.63;38.28;;;20.30;1.00;;;;;;5012899;28;20046;-57
2023/06/26 11:25:09;;;;;;;46.33;38.53;;;20.30;99.90;;;;;;5021595;28;20059;-57
2023/06/26 11:27:41;;;;;;;43.75;39.55;;;20.20;1.00;;;;;;5030805;28;20041;-58
2023/06/26 11:30:09;;;;;;;45.75;40.85;;;20.30;1.00;;;;;;5023495;28;20133;-57
2023/06/26 11:32:36;;;;;;;42.50;37.40;;;20.10;1.00;;;;;;5015766;28;20045;-57
2023/06/26 11:35:04;;;;;;;40.03;35.85;;;20.10;1.00;;;;;;5024302;28;20045;-58
2023/06/26 11:37:30;;;;;;;41.65;37.47;;;20.40;1.00;;;;;;5031239;28;20033;-58
2023/06/26 11:39:56;;;;;;;42.25;38.03;;;20.30;1.00;;;;;;5022588;28;20554;-57
2023/06/26 11:42:22;;;;;;;46.65;41.70;;;20.10;1.00;;;;;;5032873;28;20091;-58
2023/06/26 11:44:47;;;;;;;46.97;42.28;;;20.00;1.00;;;;;;5029652;28;20487;-58
2023/06/26 11:47:18;;;;;;;44.63;39.75;;;19.90;1.00;;;;;;5029773;28;20068;-57
2023/06/26 11:49:46;;;;;;;40.42;36.58;;;20.00;1.00;;;;;;5028192;28;20499;-57
2023/06/26 11:52:11;;;;;;;43.05;38.75;;;20.20;1.00;;;;;;5029548;28;20162;-57
2023/06/26 11:54:38;;;;;;;41.80;37.60;;;20.20;1.00;;;;;;5024869;28;20110;-58
2023/06/26 11:57:04;;;;;;;44.45;39.88;;;20.30;1.00;;;;;;5030059;28;20499;-58
2023/06/26 11:59:37;;;;;;;41.88;37.85;;;20.20;1.00;;;;;;5026737;28;20033;-58
2023/06/26 12:02:07;;;;;;;41.13;37.00;;;20.30;1.00;;;;;;5020440;28;20041;-58
2023/06/26 12:04:35;;;;;;;40.95;37.25;;;20.00;1.00;;;;;;5026559;28;20479;-58
2023/06/26 12:07:03;;;;;;;45.95;40.97;;;20.20;1.00;;;;;;5023971;28;20533;-58
2023/06/26 12:09:30;;;;;;;47.13;41.90;;;20.30;1.00;;;;;;5018404;28;20511;-59
2023/06/26 12:11:56;;;;;;;46.05;41.25;;;19.90;1.00;;;;;;5030403;28;20061;-58
2023/06/26 12:14:23;;;;;;;40.35;36.08;;;19.80;1.00;;;;;;5019322;28;20076;-57
2023/06/26 12:16:48;;;;;;;40.30;36.30;;;20.20;1.00;;;;;;5021670;28;20036;-57
2023/06/26 12:19:14;;;;;;;41.78;37.75;;;20.30;1.00;;;;;;5019154;28;20045;-57
2023/06/26 12:21:40;;;;;;;44.03;38.90;;;20.20;1.00;;;;;;5024894;28;20784;-57
2023/06/26 12:24:07;;;;;;;44.47;39.00;;;20.20;1.00;;;;;;5026416;28;20127;-57
2023/06/26 12:26:39;;;;;;;41.03;36.53;;;20.20;1.00;;;;;;5016975;28;20041;-57
2023/06/26 12:29:05;;;;;;;37.60;33.65;;;20.30;1.00;;;;;;5020460;28;20048;-62